Time;durP1;ratioP1;P1;durP2;ratioP2;P2;SDS_P1;SDS_P2;PMS_P1;PMS_P2;Temp;Humidity;BMP_temperature;BMP_pressure;BME280_temperature;BME280_humidity;BME280_pressure;Samples;Min_cycle;Max_cycle;Signal;HPM_P1;HPM_P2
2021/07/15 00:03:28;;;;;;;13.30;4.15;;;;;;;;;;8305656;28;20047;-74
2021/07/15 00:07:33;;;;;;;11.27;3.95;;;;;;;;;;8284492;28;20048;-74
2021/07/15 00:11:42;;;;;;;12.02;3.97;;;;;;;;;;8299276;28;20040;-74
2021/07/15 00:16:00;;;;;;;7.07;3.45;;;;;;;;;;8300974;28;20337;-77
2021/07/15 00:20:13;;;;;;;12.65;3.35;;;;;;;;;;8301066;28;20037;-74
2021/07/15 00:24:18;;;;;;;6.32;3.13;;;;;;;;;;8282637;28;20071;-73
2021/07/15 00:28:23;;;;;;;5.78;2.70;;;;;;;;;;8301097;28;20056;-74
2021/07/15 00:32:29;;;;;;;7.75;3.10;;;;;;;;;;8300414;28;20052;-73
2021/07/15 00:36:34;;;;;;;10.40;3.08;;;;;;;;;;8301957;28;20349;-74
2021/07/15 00:40:40;;;;;;;4.55;2.47;;;;;;;;;;8293737;28;20411;-74
2021/07/15 00:44:45;;;;;;;6.55;2.58;;;;;;;;;;8260596;28;20056;-75
2021/07/15 00:48:50;;;;;;;5.60;2.17;;;;;;;;;;8260457;28;20094;-73
2021/07/15 00:52:54;;;;;;;5.28;2.85;;;;;;;;;;8260080;28;20482;-74
2021/07/15 00:56:59;;;;;;;7.85;3.03;;;;;;;;;;8277945;28;20501;-73
2021/07/15 01:01:06;;;;;;;7.25;2.55;;;;;;;;;;8260037;28;20472;-73
2021/07/15 01:05:22;;;;;;;8.57;2.83;;;;;;;;;;8279765;28;20474;-74
2021/07/15 01:09:29;;;;;;;8.35;2.58;;;;;;;;;;8228094;28;20486;-73
2021/07/15 01:14:02;;;;;;;6.63;2.95;;;;;;;;;;8279901;28;20543;-73
2021/07/15 01:18:28;;;;;;;7.10;2.58;;;;;;;;;;8260866;28;20485;-72
2021/07/15 01:23:25;;;;;;;8.07;3.90;;;;;;;;;;8261620;28;20459;-74
2021/07/15 01:28:06;;;;;;;9.95;3.03;;;;;;;;;;8239216;28;20049;-74
2021/07/15 01:32:12;;;;;;;8.45;2.90;;;;;;;;;;8276474;28;20079;-73
2021/07/15 01:36:22;;;;;;;6.07;2.58;;;;;;;;;;8258400;28;20501;-77
2021/07/15 01:40:46;;;;;;;6.68;2.50;;;;;;;;;;8260405;28;20375;-74
2021/07/15 01:44:52;;;;;;;9.18;2.70;;;;;;;;;;8260355;28;20403;-74
2021/07/15 01:48:57;;;;;;;9.23;2.67;;;;;;;;;;8258496;28;20490;-74
2021/07/15 01:53:03;;;;;;;8.80;2.53;;;;;;;;;;8256651;28;20571;-74
2021/07/15 01:57:10;;;;;;;12.20;2.65;;;;;;;;;;8243601;28;20375;-74
2021/07/15 02:01:17;;;;;;;8.80;2.50;;;;;;;;;;8258893;28;20398;-74
2021/07/15 02:05:24;;;;;;;9.10;2.47;;;;;;;;;;8258538;28;20067;-73
2021/07/15 02:09:31;;;;;;;6.43;2.70;;;;;;;;;;8255230;28;20505;-74
2021/07/15 02:13:38;;;;;;;7.85;2.92;;;;;;;;;;8252106;28;20482;-73
2021/07/15 02:17:46;;;;;;;5.80;2.57;;;;;;;;;;8254461;28;20371;-74
2021/07/15 02:21:52;;;;;;;8.25;2.15;;;;;;;;;;8256852;28;20079;-73
2021/07/15 02:26:00;;;;;;;6.53;2.00;;;;;;;;;;8257219;28;20067;-74
2021/07/15 02:30:10;;;;;;;5.13;2.17;;;;;;;;;;8256266;28;20530;-74
2021/07/15 02:34:34;;;;;;;10.35;2.40;;;;;;;;;;8276866;28;20467;-74
2021/07/15 02:38:43;;;;;;;2.97;1.75;;;;;;;;;;8257348;28;20490;-73
2021/07/15 02:42:48;;;;;;;4.15;1.83;;;;;;;;;;8290360;28;20678;-73
2021/07/15 02:46:54;;;;;;;3.72;1.58;;;;;;;;;;8308926;28;20597;-74
2021/07/15 02:50:59;;;;;;;11.70;2.92;;;;;;;;;;8301232;28;20394;-73
2021/07/15 02:55:07;;;;;;;7.85;2.10;;;;;;;;;;8302991;28;20340;-73
2021/07/15 02:59:17;;;;;;;5.65;2.53;;;;;;;;;;8302126;28;20052;-76
2021/07/15 03:03:58;;;;;;;8.02;2.58;;;;;;;;;;8302690;28;20052;-73
2021/07/15 03:08:09;;;;;;;7.20;2.35;;;;;;;;;;8285931;28;20360;-72
2021/07/15 03:12:22;;;;;;;12.00;2.63;;;;;;;;;;8304847;28;20491;-73
2021/07/15 03:16:28;;;;;;;5.40;2.15;;;;;;;;;;8289934;28;20044;-72
2021/07/15 03:20:39;;;;;;;9.60;2.70;;;;;;;;;;8288558;28;20490;-73
2021/07/15 03:25:01;;;;;;;7.30;3.35;;;;;;;;;;8288108;28;20043;-72
2021/07/15 03:29:08;;;;;;;11.80;2.50;;;;;;;;;;8288550;28;20344;-74
2021/07/15 03:33:16;;;;;;;7.50;1.98;;;;;;;;;;8308790;28;20362;-74
2021/07/15 03:37:22;;;;;;;4.05;2.40;;;;;;;;;;8288812;28;20343;-73
2021/07/15 03:41:28;;;;;;;6.70;2.35;;;;;;;;;;8284851;28;20079;-75
2021/07/15 03:45:33;;;;;;;8.52;2.55;;;;;;;;;;8255402;28;20472;-75
2021/07/15 03:49:40;;;;;;;8.40;2.85;;;;;;;;;;8255463;28;20040;-73
2021/07/15 03:53:47;;;;;;;9.65;2.88;;;;;;;;;;8257437;28;20052;-74
2021/07/15 03:57:53;;;;;;;13.55;3.03;;;;;;;;;;8274831;28;20353;-76
2021/07/15 04:02:08;;;;;;;9.70;2.90;;;;;;;;;;8254573;28;20364;-74
2021/07/15 04:06:16;;;;;;;5.80;2.60;;;;;;;;;;8251096;28;20352;-74
2021/07/15 04:10:31;;;;;;;6.35;3.28;;;;;;;;;;8249977;28;20053;-75
2021/07/15 04:15:09;;;;;;;4.60;2.72;;;;;;;;;;8254718;28;20656;-74
2021/07/15 04:19:17;;;;;;;5.55;3.20;;;;;;;;;;8260774;28;20364;-73
2021/07/15 04:23:24;;;;;;;9.02;2.72;;;;;;;;;;8278016;28;20056;-74
2021/07/15 04:27:31;;;;;;;5.77;2.80;;;;;;;;;;8279000;28;20084;-73
2021/07/15 04:31:58;;;;;;;3.28;2.25;;;;;;;;;;8259626;28;20956;-74
2021/07/15 04:36:04;;;;;;;;;;;;;;;;;;8276183;28;20356;-73
2021/07/15 04:40:14;;;;;;;7.72;3.17;;;;;;;;;;8239179;28;20343;-74
2021/07/15 04:44:19;;;;;;;10.40;3.05;;;;;;;;;;8118429;28;20384;-74
2021/07/15 04:48:24;;;;;;;10.45;3.33;;;;;;;;;;7502789;28;20003450;-73
2021/07/15 04:52:30;;;;;;;3.25;2.03;;;;;;;;;;8207901;28;20376;-73
2021/07/15 04:56:37;;;;;;;5.60;2.67;;;;;;;;;;8209478;28;20491;-73
2021/07/15 05:00:43;;;;;;;;;;;;;;;;;;8209066;28;20373;-73
2021/07/15 05:04:47;;;;;;;6.15;2.47;;;;;;;;;;8210193;28;20368;-75
2021/07/15 05:08:52;;;;;;;9.23;2.75;;;;;;;;;;8209203;28;20080;-74
2021/07/15 05:12:57;;;;;;;7.32;3.17;;;;;;;;;;8211506;28;20045;-75
2021/07/15 05:17:03;;;;;;;7.35;3.22;;;;;;;;;;8207286;28;20646;-74
2021/07/15 05:21:08;;;;;;;5.55;3.30;;;;;;;;;;8209888;28;20361;-75
2021/07/15 05:25:14;;;;;;;5.18;3.30;;;;;;;;;;8209512;28;20477;-74
2021/07/15 05:29:19;;;;;;;8.57;4.45;;;;;;;;;;8209939;28;20037;-75
2021/07/15 05:33:24;;;;;;;5.20;3.45;;;;;;;;;;8211664;28;20358;-75
2021/07/15 05:37:30;;;;;;;8.88;3.78;;;;;;;;;;8209647;28;20080;-75
2021/07/15 05:41:35;;;;;;;7.18;3.95;;;;;;;;;;8230383;28;20350;-75
2021/07/15 05:45:39;;;;;;;12.00;4.43;;;;;;;;;;8238541;28;20329;-75
2021/07/15 05:49:45;;;;;;;11.68;4.18;;;;;;;;;;8237806;28;20037;-74
2021/07/15 05:53:51;;;;;;;8.38;4.25;;;;;;;;;;8238351;28;20464;-74
2021/07/15 05:57:56;;;;;;;11.52;4.30;;;;;;;;;;8238990;28;20329;-75
2021/07/15 06:02:02;;;;;;;8.68;4.25;;;;;;;;;;8240020;28;20037;-74
2021/07/15 06:06:07;;;;;;;6.70;3.67;;;;;;;;;;8238719;28;20376;-76
2021/07/15 06:10:12;;;;;;;6.68;3.92;;;;;;;;;;8237734;28;20098;-74
2021/07/15 06:14:17;;;;;;;6.28;3.72;;;;;;;;;;8253264;28;20444;-75
2021/07/15 06:18:22;;;;;;;10.50;4.28;;;;;;;;;;8238531;28;20448;-74
2021/07/15 06:22:28;;;;;;;7.25;3.17;;;;;;;;;;8238133;28;20523;-74
2021/07/15 06:26:33;;;;;;;5.88;3.50;;;;;;;;;;8237880;28;20059;-74
2021/07/15 06:30:38;;;;;;;6.03;3.58;;;;;;;;;;8237146;28;20472;-74
2021/07/15 06:34:43;;;;;;;6.97;3.75;;;;;;;;;;8235970;28;20067;-74
2021/07/15 06:38:48;;;;;;;7.00;3.00;;;;;;;;;;8235891;28;20048;-77
2021/07/15 06:42:53;;;;;;;7.38;3.03;;;;;;;;;;8269235;28;20045;-73
2021/07/15 06:46:59;;;;;;;8.27;3.25;;;;;;;;;;8270330;28;20103;-75
2021/07/15 06:51:04;;;;;;;7.35;3.22;;;;;;;;;;8251980;28;20049;-75
2021/07/15 06:55:10;;;;;;;4.95;3.15;;;;;;;;;;8251694;28;20498;-74
2021/07/15 06:59:15;;;;;;;10.82;3.35;;;;;;;;;;8269422;28;20448;-75
2021/07/15 07:03:20;;;;;;;9.63;3.42;;;;;;;;;;8268815;28;20040;-74
2021/07/15 07:07:26;;;;;;;5.43;2.95;;;;;;;;;;8267941;28;20482;-74
2021/07/15 07:11:31;;;;;;;11.35;3.63;;;;;;;;;;8269062;28;20505;-74
2021/07/15 07:15:36;;;;;;;7.20;2.72;;;;;;;;;;8270398;28;20434;-74
2021/07/15 07:19:40;;;;;;;9.25;3.28;;;;;;;;;;8268669;28;20379;-74
2021/07/15 07:36:09;;;;;;;13.07;2.97;;;;;;;;;;8319911;27;1316317;-74
2021/07/15 07:40:16;;;;;;;8.87;2.70;;;;;;;;;;8334365;28;20497;-75
2021/07/15 07:44:20;;;;;;;9.03;2.80;;;;;;;;;;8332939;28;20047;-74
2021/07/15 07:48:25;;;;;;;10.75;1.75;;;;;;;;;;8333877;28;20132;-73
2021/07/15 07:52:30;;;;;;;5.05;1.95;;;;;;;;;;8330948;28;20397;-74
2021/07/15 07:56:35;;;;;;;2.55;1.35;;;;;;;;;;8332724;28;20459;-73
2021/07/15 08:00:41;;;;;;;2.78;1.02;;;;;;;;;;8330114;28;20475;-74
2021/07/15 08:04:47;;;;;;;4.65;1.75;;;;;;;;;;8331241;28;20374;-75
2021/07/15 08:08:52;;;;;;;6.43;2.40;;;;;;;;;;8331021;28;20371;-74
2021/07/15 08:12:58;;;;;;;3.67;1.67;;;;;;;;;;8332397;28;20466;-74
2021/07/15 08:17:03;;;;;;;3.97;1.65;;;;;;;;;;8333193;28;20503;-73
2021/07/15 08:21:09;;;;;;;6.55;2.15;;;;;;;;;;8335231;28;20580;-74
2021/07/15 08:25:14;;;;;;;5.15;1.95;;;;;;;;;;8333138;28;20595;-74
2021/07/15 08:29:19;;;;;;;5.90;2.35;;;;;;;;;;8334800;28;20082;-74
2021/07/15 08:33:24;;;;;;;2.83;1.75;;;;;;;;;;8312183;28;20055;-74
2021/07/15 08:37:30;;;;;;;3.55;2.15;;;;;;;;;;8309151;28;20036;-74
2021/07/15 08:41:36;;;;;;;4.43;2.05;;;;;;;;;;8291001;28;20677;-75
2021/07/15 08:45:43;;;;;;;4.60;2.17;;;;;;;;;;8292142;28;20363;-75
2021/07/15 08:49:48;;;;;;;3.30;2.10;;;;;;;;;;8292577;28;20344;-74
2021/07/15 08:53:54;;;;;;;4.22;1.58;;;;;;;;;;8310137;28;20554;-75
2021/07/15 08:57:58;;;;;;;5.15;1.80;;;;;;;;;;8309281;28;20117;-75
2021/07/15 09:02:04;;;;;;;2.20;1.80;;;;;;;;;;8276180;28;20467;-74
2021/07/15 09:06:09;;;;;;;2.47;1.75;;;;;;;;;;8292733;28;20397;-74
2021/07/15 09:10:14;;;;;;;6.45;1.75;;;;;;;;;;8273742;28;20459;-75
2021/07/15 09:14:22;;;;;;;4.90;2.17;;;;;;;;;;8290937;28;20040;-74
2021/07/15 09:18:27;;;;;;;5.53;1.67;;;;;;;;;;8309308;28;20076;-75
2021/07/15 09:22:32;;;;;;;6.32;2.35;;;;;;;;;;8289356;28;20532;-74
2021/07/15 09:26:38;;;;;;;6.63;2.05;;;;;;;;;;8290755;28;20470;-74
2021/07/15 09:30:44;;;;;;;4.45;1.73;;;;;;;;;;8283681;28;20504;-73
2021/07/15 09:35:06;;;;;;;3.72;2.20;;;;;;;;;;8273183;28;20601;-74
2021/07/15 09:39:46;;;;;;;5.72;2.10;;;;;;;;;;8252752;28;20456;-73
2021/07/15 09:43:52;;;;;;;5.38;1.80;;;;;;;;;;8186383;28;20499;-74
2021/07/15 09:47:57;;;;;;;4.82;1.80;;;;;;;;;;8171517;28;20473;-72
2021/07/15 09:52:04;;;;;;;3.47;1.83;;;;;;;;;;8172637;28;20362;-73
2021/07/15 09:56:16;;;;;;;2.17;1.40;;;;;;;;;;8173562;28;20475;-74
2021/07/15 10:00:33;;;;;;;4.80;1.73;;;;;;;;;;8175409;28;20512;-73
2021/07/15 10:04:39;;;;;;;2.78;1.63;;;;;;;;;;8172357;28;20120;-72
2021/07/15 10:08:47;;;;;;;2.95;1.70;;;;;;;;;;8157591;28;20465;-76
2021/07/15 10:12:52;;;;;;;5.07;1.77;;;;;;;;;;8175566;28;20050;-72
2021/07/15 10:16:57;;;;;;;3.08;1.90;;;;;;;;;;8173785;28;20050;-72
2021/07/15 10:21:04;;;;;;;7.00;1.80;;;;;;;;;;8158361;28;20377;-74
2021/07/15 10:25:15;;;;;;;3.72;1.70;;;;;;;;;;8173783;28;20454;-72
2021/07/15 10:29:25;;;;;;;5.40;1.73;;;;;;;;;;8176444;28;20080;-73
2021/07/15 10:33:31;;;;;;;5.38;1.88;;;;;;;;;;8183008;28;20389;-74
2021/07/15 10:37:46;;;;;;;3.70;1.65;;;;;;;;;;8204636;28;20389;-71
2021/07/15 10:41:57;;;;;;;3.72;1.70;;;;;;;;;;8204960;28;20041;-71
2021/07/15 10:46:04;;;;;;;2.65;1.60;;;;;;;;;;8206018;28;20041;-72
2021/07/15 10:50:10;;;;;;;6.55;1.90;;;;;;;;;;8204276;28;20350;-73
2021/07/15 10:54:17;;;;;;;;;;;;;;;;;;8206897;28;20530;-72
2021/07/15 10:58:45;;;;;;;4.55;1.63;;;;;;;;;;8207908;28;20255;-71
2021/07/15 11:03:25;;;;;;;3.53;1.40;;;;;;;;;;8207402;28;20050;-72
2021/07/15 11:07:47;;;;;;;2.10;1.30;;;;;;;;;;8205941;28;20424;-69
2021/07/15 11:11:52;;;;;;;6.03;1.73;;;;;;;;;;8207066;28;20433;-69
2021/07/15 11:15:58;;;;;;;3.38;2.05;;;;;;;;;;8206379;28;20380;-69
2021/07/15 11:20:27;;;;;;;5.15;1.83;;;;;;;;;;8207876;28;20660;-69
2021/07/15 11:24:32;;;;;;;4.22;1.73;;;;;;;;;;8220719;28;20464;-69
2021/07/15 11:28:50;;;;;;;5.22;2.40;;;;;;;;;;8205725;28;20560;-72
2021/07/15 11:33:17;;;;;;;7.68;2.90;;;;;;;;;;8204891;28;20357;-69
2021/07/15 11:37:32;;;;;;;3.05;2.50;;;;;;;;;;8220318;28;20477;-69
2021/07/15 11:41:49;;;;;;;7.07;2.67;;;;;;;;;;8205125;28;20061;-69
2021/07/15 11:46:17;;;;;;;5.32;2.67;;;;;;;;;;8204116;28;20072;-69
2021/07/15 11:50:37;;;;;;;4.80;2.85;;;;;;;;;;8202963;28;20399;-70
2021/07/15 11:54:47;;;;;;;4.60;3.22;;;;;;;;;;8205577;28;20069;-70
2021/07/15 11:58:53;;;;;;;5.35;2.97;;;;;;;;;;8203926;28;20503;-69
2021/07/15 12:02:59;;;;;;;6.88;3.10;;;;;;;;;;8204394;28;20512;-68
2021/07/15 12:07:07;;;;;;;5.20;2.70;;;;;;;;;;8206640;28;20710;-68
2021/07/15 12:11:13;;;;;;;6.10;3.47;;;;;;;;;;8208730;28;20407;-69
2021/07/15 12:15:24;;;;;;;8.27;3.20;;;;;;;;;;8210893;28;20469;-70
2021/07/15 12:19:29;;;;;;;7.43;3.50;;;;;;;;;;8210935;28;20716;-68
2021/07/15 12:23:36;;;;;;;8.55;4.13;;;;;;;;;;8210130;28;20483;-71
2021/07/15 12:27:45;;;;;;;6.03;3.60;;;;;;;;;;8211981;28;20504;-71
2021/07/15 12:31:50;;;;;;;9.35;3.70;;;;;;;;;;8193898;28;20063;-69
2021/07/15 12:35:56;;;;;;;8.05;4.03;;;;;;;;;;8210189;28;20465;-68
2021/07/15 12:40:00;;;;;;;8.60;3.65;;;;;;;;;;8211321;28;20380;-67
2021/07/15 12:44:14;;;;;;;12.75;3.67;;;;;;;;;;8211754;28;20061;-67
2021/07/15 12:48:21;;;;;;;8.70;4.35;;;;;;;;;;8210640;28;20368;-70
2021/07/15 12:52:28;;;;;;;6.32;3.80;;;;;;;;;;8195176;28;20642;-70
2021/07/15 12:56:33;;;;;;;13.23;4.00;;;;;;;;;;8209754;28;20361;-68
2021/07/15 13:00:41;;;;;;;8.18;3.60;;;;;;;;;;8193717;28;20045;-68
2021/07/15 13:04:46;;;;;;;12.60;4.05;;;;;;;;;;8206464;28;20481;-69
2021/07/15 13:08:55;;;;;;;7.07;3.47;;;;;;;;;;8204779;28;20492;-70
2021/07/15 13:17:37;;;;;;;8.07;4.00;;;;;;;;;;8206200;28;20495;-68
2021/07/15 13:21:43;;;;;;;9.43;4.50;;;;;;;;;;8204184;28;20481;-67
2021/07/15 13:25:52;;;;;;;6.82;3.25;;;;;;;;;;8207634;28;20680;-70
2021/07/15 13:30:06;;;;;;;12.85;4.57;;;;;;;;;;8207589;28;20417;-70
2021/07/15 13:34:12;;;;;;;12.38;4.32;;;;;;;;;;8205728;28;20494;-68
2021/07/15 13:38:20;;;;;;;10.07;4.47;;;;;;;;;;8206002;28;20347;-68
2021/07/15 13:42:37;;;;;;;9.27;4.15;;;;;;;;;;8204350;28;20045;-69
2021/07/15 13:46:42;;;;;;;8.25;3.65;;;;;;;;;;8206416;28;20499;-68
2021/07/15 13:50:52;;;;;;;12.25;4.80;;;;;;;;;;8204963;28;20373;-68
2021/07/15 13:55:05;;;;;;;9.73;3.97;;;;;;;;;;8203868;28;20393;-68
2021/07/15 13:59:10;;;;;;;9.50;3.75;;;;;;;;;;8205353;28;20469;-68
2021/07/15 14:03:19;;;;;;;8.98;4.30;;;;;;;;;;8188736;28;20381;-67
2021/07/15 14:07:24;;;;;;;8.45;4.13;;;;;;;;;;8204566;28;20050;-71
2021/07/15 14:11:30;;;;;;;7.53;4.18;;;;;;;;;;8205472;28;20377;-67
2021/07/15 14:15:40;;;;;;;12.15;4.50;;;;;;;;;;8204015;28;20500;-67
2021/07/15 14:19:45;;;;;;;10.25;3.97;;;;;;;;;;8170142;28;20454;-67
2021/07/15 14:23:50;;;;;;;12.05;4.40;;;;;;;;;;8113437;28;20384;-68
2021/07/15 14:27:57;;;;;;;10.10;4.00;;;;;;;;;;8208933;28;20481;-68
2021/07/15 14:32:02;;;;;;;12.15;4.45;;;;;;;;;;8204602;28;20080;-71
2021/07/15 14:36:07;;;;;;;12.50;4.30;;;;;;;;;;8205075;28;20480;-68
2021/07/15 14:40:15;;;;;;;9.75;4.25;;;;;;;;;;8204595;28;20407;-68
2021/07/15 14:44:20;;;;;;;7.60;4.28;;;;;;;;;;8218849;28;20484;-67
2021/07/15 14:48:24;;;;;;;13.00;4.80;;;;;;;;;;8205300;28;20362;-71
2021/07/15 14:52:30;;;;;;;7.63;4.38;;;;;;;;;;8203861;28;20494;-70
2021/07/15 14:56:35;;;;;;;11.13;4.65;;;;;;;;;;8203486;28;20488;-68
2021/07/15 15:00:41;;;;;;;10.80;4.25;;;;;;;;;;8203544;28;20748;-67
2021/07/15 15:04:47;;;;;;;12.70;4.22;;;;;;;;;;8202456;28;20089;-72
2021/07/15 15:08:52;;;;;;;12.73;4.28;;;;;;;;;;8200878;28;20376;-72
2021/07/15 15:12:57;;;;;;;8.05;4.43;;;;;;;;;;8203201;28;20416;-71
2021/07/15 15:17:03;;;;;;;11.43;4.70;;;;;;;;;;8203056;28;20489;-69
2021/07/15 15:21:08;;;;;;;10.43;4.50;;;;;;;;;;8218529;28;20045;-68
2021/07/15 15:25:15;;;;;;;10.90;3.92;;;;;;;;;;8203146;28;20650;-69
2021/07/15 15:29:20;;;;;;;9.37;4.07;;;;;;;;;;8203117;28;20453;-68
2021/07/15 15:33:25;;;;;;;10.40;4.32;;;;;;;;;;8202786;28;20075;-73
2021/07/15 15:37:31;;;;;;;8.68;4.00;;;;;;;;;;8203234;28;20369;-67
2021/07/15 15:41:37;;;;;;;10.40;4.28;;;;;;;;;;8204118;28;20656;-67
2021/07/15 15:45:42;;;;;;;9.88;4.75;;;;;;;;;;8220378;28;20646;-70
2021/07/15 15:49:47;;;;;;;9.73;4.18;;;;;;;;;;8204297;28;20490;-72
2021/07/15 15:53:53;;;;;;;8.32;4.10;;;;;;;;;;8208978;28;20456;-68
2021/07/15 15:57:59;;;;;;;13.20;4.05;;;;;;;;;;8208611;28;20067;-69
2021/07/15 16:02:07;;;;;;;7.57;4.00;;;;;;;;;;8208135;28;20676;-68
2021/07/15 16:06:12;;;;;;;9.10;4.47;;;;;;;;;;8209697;28;20352;-69
2021/07/15 16:10:24;;;;;;;7.90;4.47;;;;;;;;;;8223007;28;20360;-68
2021/07/15 16:14:29;;;;;;;9.25;4.97;;;;;;;;;;8229642;28;20095;-68
2021/07/15 16:18:33;;;;;;;7.43;4.40;;;;;;;;;;8226665;28;20065;-67
2021/07/15 16:22:40;;;;;;;9.98;4.80;;;;;;;;;;8229343;28;20046;-67
2021/07/15 16:26:45;;;;;;;;;;;;;;;;;;8229121;28;20476;-68
2021/07/15 16:30:51;;;;;;;11.68;4.70;;;;;;;;;;8229625;28;19921;-68
2021/07/15 16:34:55;;;;;;;10.45;4.63;;;;;;;;;;8250606;28;20368;-68
2021/07/15 16:39:00;;;;;;;15.02;5.57;;;;;;;;;;8244248;28;20390;-68
2021/07/15 16:43:06;;;;;;;15.93;4.75;;;;;;;;;;8262661;28;20373;-68
2021/07/15 16:47:11;;;;;;;12.85;5.78;;;;;;;;;;8259749;28;20045;-67
2021/07/15 16:51:16;;;;;;;16.00;6.75;;;;;;;;;;8262173;28;20049;-67
2021/07/15 16:55:23;;;;;;;13.32;5.53;;;;;;;;;;8243026;28;20067;-69
2021/07/15 16:59:28;;;;;;;14.10;4.90;;;;;;;;;;8240719;28;20479;-68
2021/07/15 17:03:33;;;;;;;14.52;5.55;;;;;;;;;;8261375;28;20348;-68
2021/07/15 17:07:38;;;;;;;12.73;7.03;;;;;;;;;;8262447;28;20647;-67
2021/07/15 17:11:42;;;;;;;31.90;12.05;;;;;;;;;;8274786;28;20344;-67
2021/07/15 17:15:47;;;;;;;10.25;6.60;;;;;;;;;;8260613;28;20490;-69
2021/07/15 17:19:55;;;;;;;11.18;6.07;;;;;;;;;;8243127;28;20348;-68
2021/07/15 17:24:00;;;;;;;9.18;5.07;;;;;;;;;;8242006;28;20371;-68
2021/07/15 17:28:06;;;;;;;8.63;4.40;;;;;;;;;;8274096;28;20087;-67
2021/07/15 17:32:12;;;;;;;11.05;4.90;;;;;;;;;;8241315;28;20386;-67
2021/07/15 17:36:17;;;;;;;15.68;6.60;;;;;;;;;;8225717;28;20041;-68
2021/07/15 17:40:23;;;;;;;19.85;6.50;;;;;;;;;;8242588;28;20387;-69
2021/07/15 17:44:29;;;;;;;11.18;5.13;;;;;;;;;;8228077;28;20470;-68
2021/07/15 17:48:35;;;;;;;10.90;4.82;;;;;;;;;;8226329;28;20423;-68
2021/07/15 17:52:41;;;;;;;14.05;6.40;;;;;;;;;;8226265;28;20388;-68
2021/07/15 17:56:46;;;;;;;13.82;6.38;;;;;;;;;;8226091;28;20487;-69
2021/07/15 18:00:51;;;;;;;15.57;6.75;;;;;;;;;;8226472;28;20480;-68
2021/07/15 18:04:59;;;;;;;12.57;5.28;;;;;;;;;;8228427;28;20363;-68
2021/07/15 18:09:06;;;;;;;12.00;5.20;;;;;;;;;;8238964;28;20383;-68
2021/07/15 18:13:10;;;;;;;10.43;5.47;;;;;;;;;;8240735;28;20052;-69
2021/07/15 18:17:19;;;;;;;11.77;5.50;;;;;;;;;;8226552;28;20341;-68
2021/07/15 18:21:24;;;;;;;8.70;5.60;;;;;;;;;;8224945;28;20561;-67
2021/07/15 18:25:31;;;;;;;9.65;4.82;;;;;;;;;;8209231;28;20479;-68
2021/07/15 18:29:36;;;;;;;15.20;5.70;;;;;;;;;;8226324;28;20053;-67
2021/07/15 18:33:42;;;;;;;18.88;6.90;;;;;;;;;;8251748;28;20464;-68
2021/07/15 18:37:48;;;;;;;23.17;7.13;;;;;;;;;;8239241;28;20344;-68
2021/07/15 18:41:55;;;;;;;20.52;6.57;;;;;;;;;;8258481;28;20584;-68
2021/07/15 18:46:01;;;;;;;7.55;5.43;;;;;;;;;;8273901;28;20466;-69
2021/07/15 18:50:08;;;;;;;29.73;6.35;;;;;;;;;;8258636;28;20335;-68
2021/07/15 18:54:14;;;;;;;12.43;5.25;;;;;;;;;;8259095;28;20375;-68
2021/07/15 18:58:20;;;;;;;31.30;6.82;;;;;;;;;;8255843;28;20356;-67
2021/07/15 19:02:26;;;;;;;16.15;5.80;;;;;;;;;;8258021;28;20466;-68
2021/07/15 19:06:31;;;;;;;10.48;5.53;;;;;;;;;;8256567;28;20061;-68
2021/07/15 19:10:36;;;;;;;12.77;6.03;;;;;;;;;;8239361;28;20475;-68
2021/07/15 19:14:42;;;;;;;19.25;6.63;;;;;;;;;;8259597;28;20352;-68
2021/07/15 19:18:48;;;;;;;15.32;7.07;;;;;;;;;;8258907;28;20367;-68
2021/07/15 19:22:53;;;;;;;24.88;16.05;;;;;;;;;;8271022;28;20329;-69
2021/07/15 19:26:58;;;;;;;13.68;7.78;;;;;;;;;;8240767;28;20704;-68
2021/07/15 19:31:08;;;;;;;16.38;10.52;;;;;;;;;;8257244;28;20057;-69
2021/07/15 19:35:15;;;;;;;16.88;8.70;;;;;;;;;;8207385;28;20049;-67
2021/07/15 19:39:20;;;;;;;38.40;12.23;;;;;;;;;;8189773;28;20392;-68
2021/07/15 19:43:25;;;;;;;22.67;11.93;;;;;;;;;;8151765;28;20516;-68
2021/07/15 19:47:31;;;;;;;21.35;8.57;;;;;;;;;;8191829;28;20357;-68
2021/07/15 19:51:36;;;;;;;56.90;25.00;;;;;;;;;;8193290;28;20469;-68
2021/07/15 19:55:41;;;;;;;23.30;9.93;;;;;;;;;;8118030;28;20338;-68
2021/07/15 19:59:47;;;;;;;19.05;8.45;;;;;;;;;;8189864;28;20335;-68
2021/07/15 20:03:54;;;;;;;33.85;11.90;;;;;;;;;;8190700;28;20496;-68
2021/07/15 20:08:00;;;;;;;27.95;14.90;;;;;;;;;;8189575;28;20381;-68
2021/07/15 20:12:05;;;;;;;26.88;13.32;;;;;;;;;;8192097;28;20366;-70
2021/07/15 20:16:11;;;;;;;20.60;12.20;;;;;;;;;;8189075;28;20347;-68
2021/07/15 20:20:20;;;;;;;24.23;11.15;;;;;;;;;;8190956;28;20049;-69
2021/07/15 20:24:25;;;;;;;22.30;11.27;;;;;;;;;;8191135;28;20461;-67
2021/07/15 20:28:32;;;;;;;22.40;10.73;;;;;;;;;;8190980;28;20076;-68
2021/07/15 20:32:38;;;;;;;17.35;9.13;;;;;;;;;;8195045;28;20405;-69
2021/07/15 20:36:42;;;;;;;22.73;9.48;;;;;;;;;;8228386;28;20465;-68
2021/07/15 20:40:47;;;;;;;17.55;8.40;;;;;;;;;;8226782;28;20457;-68
2021/07/15 20:44:53;;;;;;;16.77;8.10;;;;;;;;;;8228075;28;20053;-68
2021/07/15 20:49:23;;;;;;;14.95;7.88;;;;;;;;;;8229042;28;20441;-68
2021/07/15 20:53:31;;;;;;;17.50;8.88;;;;;;;;;;8228126;28;20072;-68
2021/07/15 20:57:50;;;;;;;20.70;8.15;;;;;;;;;;8226582;28;20396;-68
2021/07/15 21:01:53;;;;;;;14.02;8.43;;;;;;;;;;8228108;28;20361;-68
2021/07/15 21:06:00;;;;;;;11.82;8.35;;;;;;;;;;8228681;28;20068;-68
2021/07/15 21:10:07;;;;;;;14.23;8.48;;;;;;;;;;8230489;28;20364;-68
2021/07/15 21:14:12;;;;;;;13.35;8.13;;;;;;;;;;8226384;28;20041;-68
2021/07/15 21:18:18;;;;;;;12.57;7.15;;;;;;;;;;8227048;28;20042;-69
2021/07/15 21:22:25;;;;;;;13.38;8.27;;;;;;;;;;8225785;28;20473;-68
2021/07/15 21:26:30;;;;;;;13.48;7.60;;;;;;;;;;8227973;28;20483;-68
2021/07/15 21:30:36;;;;;;;12.70;7.60;;;;;;;;;;8226760;28;20408;-68
2021/07/15 21:34:41;;;;;;;15.98;7.45;;;;;;;;;;8225839;28;20457;-68
2021/07/15 21:38:48;;;;;;;16.15;7.38;;;;;;;;;;8227151;28;20499;-70
2021/07/15 21:42:56;;;;;;;12.85;7.63;;;;;;;;;;8225864;28;20475;-70
2021/07/15 21:47:01;;;;;;;;;;;;;;;;;;8227727;28;20491;-68
2021/07/15 21:51:07;;;;;;;17.38;8.25;;;;;;;;;;8225724;28;20352;-68
2021/07/15 21:55:13;;;;;;;15.63;8.77;;;;;;;;;;8228098;28;20465;-68
2021/07/15 21:59:18;;;;;;;17.55;9.18;;;;;;;;;;8226836;28;20373;-69
2021/07/15 22:03:22;;;;;;;16.33;8.90;;;;;;;;;;8227597;28;20330;-70
2021/07/15 22:07:28;;;;;;;15.30;8.02;;;;;;;;;;8224660;28;20046;-68
2021/07/15 22:11:33;;;;;;;12.23;7.38;;;;;;;;;;8227156;28;20057;-70
2021/07/15 22:15:39;;;;;;;9.68;7.05;;;;;;;;;;8226175;28;20372;-68
2021/07/15 22:19:44;;;;;;;13.63;7.82;;;;;;;;;;8225718;28;20376;-68
2021/07/15 22:23:52;;;;;;;14.27;7.70;;;;;;;;;;8224341;28;20330;-70
2021/07/15 22:27:58;;;;;;;16.08;8.07;;;;;;;;;;8225399;28;20487;-68
2021/07/15 22:32:05;;;;;;;12.23;8.15;;;;;;;;;;8227279;28;20041;-69
2021/07/15 22:36:10;;;;;;;13.40;8.13;;;;;;;;;;8225469;28;20384;-68
2021/07/15 22:40:17;;;;;;;13.50;8.25;;;;;;;;;;8224172;28;20472;-68
2021/07/15 22:44:22;;;;;;;20.42;8.85;;;;;;;;;;8207503;28;20361;-68
2021/07/15 22:48:30;;;;;;;11.55;7.97;;;;;;;;;;8224353;28;20461;-68
2021/07/15 22:52:38;;;;;;;15.65;6.68;;;;;;;;;;8225128;28;20469;-69
2021/07/15 22:56:43;;;;;;;13.98;7.88;;;;;;;;;;8223713;28;20346;-68
2021/07/15 23:00:49;;;;;;;20.48;8.18;;;;;;;;;;8224618;28;20049;-68
2021/07/15 23:04:55;;;;;;;19.08;8.80;;;;;;;;;;8222825;28;20063;-68
2021/07/15 23:09:00;;;;;;;15.82;8.15;;;;;;;;;;8227312;28;20385;-68
2021/07/15 23:13:08;;;;;;;13.40;8.93;;;;;;;;;;8225512;28;20368;-68
2021/07/15 23:17:14;;;;;;;15.80;9.00;;;;;;;;;;8225462;28;20072;-68
2021/07/15 23:21:19;;;;;;;18.27;8.75;;;;;;;;;;8226194;28;20361;-68
2021/07/15 23:25:26;;;;;;;16.90;8.70;;;;;;;;;;8222588;28;20400;-68
2021/07/15 23:29:31;;;;;;;16.80;9.38;;;;;;;;;;8223894;28;20472;-69
2021/07/15 23:33:37;;;;;;;13.65;9.65;;;;;;;;;;8223064;28;20619;-68
2021/07/15 23:37:43;;;;;;;17.50;9.48;;;;;;;;;;8227146;28;20472;-68
2021/07/15 23:41:48;;;;;;;14.75;9.07;;;;;;;;;;8222819;28;20408;-68
2021/07/15 23:45:53;;;;;;;14.20;9.80;;;;;;;;;;8224604;28;20369;-70
2021/07/15 23:49:59;;;;;;;14.13;9.68;;;;;;;;;;8222957;28;20049;-71
2021/07/15 23:54:04;;;;;;;15.63;10.15;;;;;;;;;;8223133;28;20390;-69
2021/07/15 23:58:10;;;;;;;13.50;10.13;;;;;;;;;;8222526;28;20365;-68
